Matagorda, TX

2:50 AM CDT on July 27, 2016 (GMT -0500)
Matagorda Townsite | | Change Station

Elev 26 ft 28.69 °N, 95.97 °W | Updated 13 minutes ago

Mostly Cloudy
Mostly Cloudy
82.2 °F
Feels Like 92 °F
N
4.2
Wind Variable Wind from WSW

Today
High -- | Low -- °F
--% Chance of Precip.
Yesterday
High -- | Low -- °F
Precip. -- in
Pressure 29.91 in
Visibility 9.0 miles
Clouds Mostly Cloudy 1900 ft
Heat Index 92 °F
Dew Point 79 °F
Humidity 91%
Rainfall 0.00 in
Snow Depth Not available.
6:42 AM 8:17 PM
Last Quarter, 46% visible
SPECI KPSX 270715Z AUTO 00000KT 9SM BKN019 27/24 A2991 RMK AO2 T02720239
Pressure 29.91 in
Visibility 9.0 miles
Clouds Mostly Cloudy 1900 ft
Heat Index 92 °F
Dew Point 79 °F
Humidity 91%
Rainfall 0.00 in
Snow Depth Not available.
6:42 AM 8:17 PM
Last Quarter, 46% visible
SPECI KPSX 270715Z AUTO 00000KT 9SM BKN019 27/24 A2991 RMK AO2 T02720239

10-Day Weather Forecast

Almanac

Astronomy

Jul. 27, 2016 Rise Set
Actual Time
Civil Twilight
Nautical Twilight
Astronomical Twilight
Moon
Length of Visible Light
Length of Day
Tomorrow will be .
, % of the Moon is Illuminated

Today's Extremes

State Highs State Lows

Community

WunderPhotos

Upload Photos

1,927,818 photos uploaded!

WunderBlog® & News

Nearby

Air Quality

  Air Quality AQ Index Pollutant
Not available.

Snow Depth

Station Depth Elevation

Earthquake Activity

City Distance Mag. Time & Date
Minimum magnitude displayed is 2.5.

Coastal Water Temperatures

Place Temperature

Stations

Nearby Weather Stations

Station Location Temp. Windchill Dew Point Humidity Wind Precip. Elev Updated Type
                   

Watches & Warnings

There are currently no watches in effect.